Seacod — DDPW — position and weather

sailwx.info

Track history (hours):
 
Tides and Currents Weather Stations Pressure Air Temp Water Temp Dewpoint Dewpoint Depression Visibility Wind Speed Wind Dir Waves Ship Positions

Seacod

Last reported at 2014-Sep-22 22:04 UTC. Time now 2014-Sep-23 06:25 UTC.
Position N 54°24' E 004°45'.

Length 188 m; draft 10.1 m.

Type: Ship. MMSI: 218019000.

Date/timePositionNaut miles runAvg speedWind from/ knotsBaromVisibWave heightAir tempDewpointWater temp
2014-Sep-22 22:04N 54°24' E 004°45'27812.6
2014-Sep-22 00:05N 57°49' E 010°20'713.2
2014-Sep-21 23:33N 57°49' E 010°34'1111.0
2014-Sep-21 22:33N 57°46' E 010°53'1212.5
2014-Sep-21 21:33N 57°37' E 011°09'1312.9
2014-Sep-21 20:33N 57°28' E 011°26'1211.8
2014-Sep-21 19:33N 57°17' E 011°35'1111.3
2014-Sep-21 18:33N 57°06' E 011°40'1111.2
2014-Sep-21 17:33N 56°56' E 011°47'1111.3
2014-Sep-21 16:33N 56°45' E 011°54'1212.5
2014-Sep-21 15:33N 56°34' E 011°42'12010.9
2014-Sep-21 04:33N 54°38' E 010°55'1212.0
2014-Sep-21 03:33N 54°34' E 011°15'1313.0
2014-Sep-21 02:33N 54°29' E 011°35'1312.8
2014-Sep-21 01:33N 54°26' E 011°56'1110.8
2014-Sep-21 00:33N 54°30' E 012°13'1212.1
2014-Sep-20 23:33N 54°40' E 012°25'1313.0
2014-Sep-20 22:33N 54°47' E 012°44'1313.2
2014-Sep-20 21:33N 54°52' E 013°06'1313.5
2014-Sep-20 20:33N 54°57' E 013°28'1413.4
2014-Sep-20 19:31N 55°02' E 013°50'1313.4
2014-Sep-20 18:33N 55°09' E 014°09'1513.7
2014-Sep-20 17:30N 55°20' E 014°26'1313.8
2014-Sep-20 16:33N 55°28' E 014°44'3113.8
2014-Sep-20 14:18N 55°43' E 015°32'1013.9
2014-Sep-20 13:33N 55°49' E 015°47'2013.9
2014-Sep-20 12:07N 55°59' E 016°18'813.9
2014-Sep-20 11:33N 56°03' E 016°30'1413.9
2014-Sep-20 10:34N 56°12' E 016°49'1413.9
2014-Sep-20 09:33N 56°20' E 017°09'1413.9
2014-Sep-20 08:33N 56°28' E 017°29'1413.7
2014-Sep-20 07:33N 56°36' E 017°50'1413.7
2014-Sep-20 06:34N 56°44' E 018°10'1413.7
2014-Sep-20 05:33N 56°53' E 018°30'2813.8
2014-Sep-20 03:33N 57°15' E 018°60'1713.6
2014-Sep-20 02:17N 57°29' E 019°20'12213.7
2014-Sep-19 17:21N 59°08' E 021°35'1113.7
2014-Sep-19 16:33N 59°15' E 021°51'2713.5
2014-Sep-19 14:33N 59°31' E 022°34'1413.6
2014-Sep-19 13:33N 59°35' E 022°60'1413.6
2014-Sep-19 12:33N 59°38' E 023°26'1913.7
2014-Sep-19 11:12N 59°43' E 024°01'913.9
2014-Sep-19 10:34N 59°46' E 024°18'2813.7
2014-Sep-19 08:33N 59°52' E 025°11'1413.7
2014-Sep-19 07:32N 59°55' E 025°39'1413.6
2014-Sep-19 06:29N 59°58' E 026°07'1213.5
2014-Sep-19 05:33N 60°01' E 026°31'1313.4
2014-Sep-19 04:33N 59°60' E 026°57'8 0.2
2014-Sep-17 02:09N 60°01' E 027°13'712.5
2014-Sep-17 01:34N 59°58' E 027°00'1312.7
2014-Sep-17 00:32N 59°58' E 026°34'5112.8
2014-Sep-16 20:33N 59°47' E 024°55'1312.7
2014-Sep-16 19:33N 59°44' E 024°30'1812.4
2014-Sep-16 18:04N 59°39' E 023°55'712.6
2014-Sep-16 17:34N 59°37' E 023°43'1312.9
2014-Sep-16 16:33N 59°32' E 023°19'16712.4
2014-Sep-16 03:05N 57°33' E 019°34'2012.6
2014-Sep-16 01:31N 57°17' E 019°12'1212.6
2014-Sep-16 00:34N 57°08' E 018°59'1212.4
2014-Sep-15 23:34N 56°58' E 018°45'1312.3
2014-Sep-15 22:31N 56°48' E 018°31'1812.3
2014-Sep-15 21:04N 56°37' E 018°05'712.4
2014-Sep-15 20:32N 56°33' E 017°55'1212.3
2014-Sep-15 19:33N 56°26' E 017°38'1412.3
2014-Sep-15 18:27N 56°17' E 017°19'1112.3
2014-Sep-15 17:32N 56°11' E 017°02'6911.6
2014-Sep-15 11:33N 55°35' E 015°17'1111.4
2014-Sep-15 10:33N 55°29' E 014°59'1211.7
2014-Sep-15 09:33N 55°23' E 014°41'1211.6
2014-Sep-15 08:33N 55°15' E 014°27'1212.0
2014-Sep-15 07:34N 55°05' E 014°14'1212.3
2014-Sep-15 06:33N 54°59' E 013°56'1212.5
2014-Sep-15 05:33N 54°55' E 013°36'1212.2
2014-Sep-15 04:33N 54°51' E 013°15'1211.9
2014-Sep-15 03:32N 54°47' E 012°55'1111.7
2014-Sep-15 02:34N 54°42' E 012°37'1211.6
2014-Sep-15 01:34N 54°36' E 012°20'1111.0
2014-Sep-15 00:34N 54°26' E 012°12'1010.3
2014-Sep-14 23:33N 54°17' E 012°05'8 7.5
2014-Sep-14 22:33N 54°10' E 012°08'0 0.1
2014-Sep-14 21:22N 54°09' E 012°08'0 0.0
2014-Sep-14 20:28N 54°09' E 012°08'0 0.0
2014-Sep-14 19:28N 54°09' E 012°08'0 0.0
2014-Sep-14 18:20N 54°09' E 012°08'0 0.0
2014-Sep-14 17:28N 54°09' E 012°08'0 0.0
2014-Sep-14 16:25N 54°09' E 012°08'0 0.0
2014-Sep-14 15:31N 54°09' E 012°08'0 0.0
2014-Sep-14 14:28N 54°09' E 012°08'0 0.0
2014-Sep-14 13:19N 54°09' E 012°08'0 0.0
2014-Sep-14 12:31N 54°09' E 012°08'0 0.0
2014-Sep-14 11:31N 54°09' E 012°08'0 0.0
2014-Sep-14 10:28N 54°09' E 012°08'0 0.0
2014-Sep-14 09:31N 54°09' E 012°08'0 0.0
2014-Sep-14 08:28N 54°09' E 012°08'0 0.0
2014-Sep-14 07:28N 54°09' E 012°08'0 0.0
2014-Sep-14 06:25N 54°09' E 012°08'0 0.0
2014-Sep-14 05:31N 54°09' E 012°08'0 0.0
2014-Sep-14 04:25N 54°09' E 012°08'0 0.0
2014-Sep-14 03:31N 54°09' E 012°08'0 0.0
2014-Sep-14 02:31N 54°09' E 012°08'0 0.0
2014-Sep-14 01:31N 54°09' E 012°08'0 0.0
2014-Sep-13 21:28N 54°09' E 012°08'0 0.0
2014-Sep-13 20:22N 54°09' E 012°08'0 0.0
2014-Sep-13 19:28N 54°09' E 012°08'0 0.0
2014-Sep-13 18:31N 54°09' E 012°08'0 0.0
2014-Sep-13 17:31N 54°09' E 012°08'0 0.0
2014-Sep-13 16:28N 54°09' E 012°08'0 0.0
2014-Sep-13 15:25N 54°09' E 012°08'0 0.0
2014-Sep-13 14:28N 54°09' E 012°08'0 0.0
2014-Sep-13 13:28N 54°09' E 012°08'0 0.0
2014-Sep-13 12:25N 54°09' E 012°08'0 0.0
2014-Sep-13 11:13N 54°09' E 012°08'0 0.0
2014-Sep-13 10:25N 54°09' E 012°08'0 0.0
2014-Sep-13 09:31N 54°09' E 012°08'0 0.0
2014-Sep-13 08:25N 54°09' E 012°08'0 0.0
2014-Sep-13 07:31N 54°09' E 012°08'0 0.0
2014-Sep-13 06:13N 54°09' E 012°08'0 0.0
2014-Sep-13 05:19N 54°09' E 012°08'0 0.0
2014-Sep-13 04:22N 54°09' E 012°08'0 0.0
2014-Sep-13 03:16N 54°09' E 012°08'0 0.0
2014-Sep-13 02:22N 54°09' E 012°08'0 0.0
2014-Sep-13 01:31N 54°09' E 012°08'0 0.0
2014-Sep-13 00:28N 54°09' E 012°08'0 0.0
2014-Sep-12 23:31N 54°09' E 012°08'0 0.0
2014-Sep-12 22:22N 54°09' E 012°08'  
Track history (hours):
 
Tides and Currents Weather Stations Pressure Air Temp Water Temp Dewpoint Dewpoint Depression Visibility Wind Speed Wind Dir Waves Ship Positions

Seacod

Last reported at 2014-Sep-22 22:04 UTC. Time now 2014-Sep-23 06:25 UTC.
Position N 54°24' E 004°45'.

Length 188 m; draft 10.1 m.

Type: Ship. MMSI: 218019000.

Date/timePositionNaut miles runAvg speedWind from/ knotsBaromVisibWave heightAir tempDewpointWater temp
2014-Sep-22 22:04N 54°24' E 004°45'27812.6
2014-Sep-22 00:05N 57°49' E 010°20'713.2
2014-Sep-21 23:33N 57°49' E 010°34'1111.0
2014-Sep-21 22:33N 57°46' E 010°53'1212.5
2014-Sep-21 21:33N 57°37' E 011°09'1312.9
2014-Sep-21 20:33N 57°28' E 011°26'1211.8
2014-Sep-21 19:33N 57°17' E 011°35'1111.3
2014-Sep-21 18:33N 57°06' E 011°40'1111.2
2014-Sep-21 17:33N 56°56' E 011°47'1111.3
2014-Sep-21 16:33N 56°45' E 011°54'1212.5
2014-Sep-21 15:33N 56°34' E 011°42'12010.9
2014-Sep-21 04:33N 54°38' E 010°55'1212.0
2014-Sep-21 03:33N 54°34' E 011°15'1313.0
2014-Sep-21 02:33N 54°29' E 011°35'1312.8
2014-Sep-21 01:33N 54°26' E 011°56'1110.8
2014-Sep-21 00:33N 54°30' E 012°13'1212.1
2014-Sep-20 23:33N 54°40' E 012°25'1313.0
2014-Sep-20 22:33N 54°47' E 012°44'1313.2
2014-Sep-20 21:33N 54°52' E 013°06'1313.5
2014-Sep-20 20:33N 54°57' E 013°28'1413.4
2014-Sep-20 19:31N 55°02' E 013°50'1313.4
2014-Sep-20 18:33N 55°09' E 014°09'1513.7
2014-Sep-20 17:30N 55°20' E 014°26'1313.8
2014-Sep-20 16:33N 55°28' E 014°44'3113.8
2014-Sep-20 14:18N 55°43' E 015°32'1013.9
2014-Sep-20 13:33N 55°49' E 015°47'2013.9
2014-Sep-20 12:07N 55°59' E 016°18'813.9
2014-Sep-20 11:33N 56°03' E 016°30'1413.9
2014-Sep-20 10:34N 56°12' E 016°49'1413.9
2014-Sep-20 09:33N 56°20' E 017°09'1413.9
2014-Sep-20 08:33N 56°28' E 017°29'1413.7
2014-Sep-20 07:33N 56°36' E 017°50'1413.7
2014-Sep-20 06:34N 56°44' E 018°10'1413.7
2014-Sep-20 05:33N 56°53' E 018°30'2813.8
2014-Sep-20 03:33N 57°15' E 018°60'1713.6
2014-Sep-20 02:17N 57°29' E 019°20'12213.7
2014-Sep-19 17:21N 59°08' E 021°35'1113.7
2014-Sep-19 16:33N 59°15' E 021°51'2713.5
2014-Sep-19 14:33N 59°31' E 022°34'1413.6
2014-Sep-19 13:33N 59°35' E 022°60'1413.6
2014-Sep-19 12:33N 59°38' E 023°26'1913.7
2014-Sep-19 11:12N 59°43' E 024°01'913.9
2014-Sep-19 10:34N 59°46' E 024°18'2813.7
2014-Sep-19 08:33N 59°52' E 025°11'1413.7
2014-Sep-19 07:32N 59°55' E 025°39'1413.6
2014-Sep-19 06:29N 59°58' E 026°07'1213.5
2014-Sep-19 05:33N 60°01' E 026°31'1313.4
2014-Sep-19 04:33N 59°60' E 026°57'8 0.2
2014-Sep-17 02:09N 60°01' E 027°13'712.5
2014-Sep-17 01:34N 59°58' E 027°00'1312.7
2014-Sep-17 00:32N 59°58' E 026°34'5112.8
2014-Sep-16 20:33N 59°47' E 024°55'1312.7
2014-Sep-16 19:33N 59°44' E 024°30'1812.4
2014-Sep-16 18:04N 59°39' E 023°55'712.6
2014-Sep-16 17:34N 59°37' E 023°43'1312.9
2014-Sep-16 16:33N 59°32' E 023°19'16712.4
2014-Sep-16 03:05N 57°33' E 019°34'2012.6
2014-Sep-16 01:31N 57°17' E 019°12'1212.6
2014-Sep-16 00:34N 57°08' E 018°59'1212.4
2014-Sep-15 23:34N 56°58' E 018°45'1312.3
2014-Sep-15 22:31N 56°48' E 018°31'1812.3
2014-Sep-15 21:04N 56°37' E 018°05'712.4
2014-Sep-15 20:32N 56°33' E 017°55'1212.3
2014-Sep-15 19:33N 56°26' E 017°38'1412.3
2014-Sep-15 18:27N 56°17' E 017°19'1112.3
2014-Sep-15 17:32N 56°11' E 017°02'6911.6
2014-Sep-15 11:33N 55°35' E 015°17'1111.4
2014-Sep-15 10:33N 55°29' E 014°59'1211.7
2014-Sep-15 09:33N 55°23' E 014°41'1211.6
2014-Sep-15 08:33N 55°15' E 014°27'1212.0
2014-Sep-15 07:34N 55°05' E 014°14'1212.3
2014-Sep-15 06:33N 54°59' E 013°56'1212.5
2014-Sep-15 05:33N 54°55' E 013°36'1212.2
2014-Sep-15 04:33N 54°51' E 013°15'1211.9
2014-Sep-15 03:32N 54°47' E 012°55'1111.7
2014-Sep-15 02:34N 54°42' E 012°37'1211.6
2014-Sep-15 01:34N 54°36' E 012°20'1111.0
2014-Sep-15 00:34N 54°26' E 012°12'1010.3
2014-Sep-14 23:33N 54°17' E 012°05'8 7.5
2014-Sep-14 22:33N 54°10' E 012°08'0 0.1
2014-Sep-14 21:22N 54°09' E 012°08'0 0.0
2014-Sep-14 20:28N 54°09' E 012°08'0 0.0
2014-Sep-14 19:28N 54°09' E 012°08'0 0.0
2014-Sep-14 18:20N 54°09' E 012°08'0 0.0
2014-Sep-14 17:28N 54°09' E 012°08'0 0.0
2014-Sep-14 16:25N 54°09' E 012°08'0 0.0
2014-Sep-14 15:31N 54°09' E 012°08'0 0.0
2014-Sep-14 14:28N 54°09' E 012°08'0 0.0
2014-Sep-14 13:19N 54°09' E 012°08'0 0.0
2014-Sep-14 12:31N 54°09' E 012°08'0 0.0
2014-Sep-14 11:31N 54°09' E 012°08'0 0.0
2014-Sep-14 10:28N 54°09' E 012°08'0 0.0
2014-Sep-14 09:31N 54°09' E 012°08'0 0.0
2014-Sep-14 08:28N 54°09' E 012°08'0 0.0
2014-Sep-14 07:28N 54°09' E 012°08'0 0.0
2014-Sep-14 06:25N 54°09' E 012°08'0 0.0
2014-Sep-14 05:31N 54°09' E 012°08'0 0.0
2014-Sep-14 04:25N 54°09' E 012°08'0 0.0
2014-Sep-14 03:31N 54°09' E 012°08'0 0.0
2014-Sep-14 02:31N 54°09' E 012°08'0 0.0
2014-Sep-14 01:31N 54°09' E 012°08'0 0.0
2014-Sep-13 21:28N 54°09' E 012°08'0 0.0
2014-Sep-13 20:22N 54°09' E 012°08'0 0.0
2014-Sep-13 19:28N 54°09' E 012°08'0 0.0
2014-Sep-13 18:31N 54°09' E 012°08'0 0.0
2014-Sep-13 17:31N 54°09' E 012°08'0 0.0
2014-Sep-13 16:28N 54°09' E 012°08'0 0.0
2014-Sep-13 15:25N 54°09' E 012°08'0 0.0
2014-Sep-13 14:28N 54°09' E 012°08'0 0.0
2014-Sep-13 13:28N 54°09' E 012°08'0 0.0
2014-Sep-13 12:25N 54°09' E 012°08'0 0.0
2014-Sep-13 11:13N 54°09' E 012°08'0 0.0
2014-Sep-13 10:25N 54°09' E 012°08'0 0.0
2014-Sep-13 09:31N 54°09' E 012°08'0 0.0
2014-Sep-13 08:25N 54°09' E 012°08'0 0.0
2014-Sep-13 07:31N 54°09' E 012°08'0 0.0
2014-Sep-13 06:13N 54°09' E 012°08'0 0.0
2014-Sep-13 05:19N 54°09' E 012°08'0 0.0
2014-Sep-13 04:22N 54°09' E 012°08'0 0.0
2014-Sep-13 03:16N 54°09' E 012°08'0 0.0
2014-Sep-13 02:22N 54°09' E 012°08'0 0.0
2014-Sep-13 01:31N 54°09' E 012°08'0 0.0
2014-Sep-13 00:28N 54°09' E 012°08'0 0.0
2014-Sep-12 23:31N 54°09' E 012°08'0 0.0
2014-Sep-12 22:22N 54°09' E 012°08'  

Dump ship's entire track history